Time;durP1;ratioP1;P1;durP2;ratioP2;P2;SDS_P1;SDS_P2;PMS_P1;PMS_P2;Temp;Humidity;BMP_temperature;BMP_pressure;BME280_temperature;BME280_humidity;BME280_pressure;Samples;Min_cycle;Max_cycle;Signal;HPM_P1;HPM_P2
2021/03/24 00:00:54;;;;;;;16.90;9.20;;;;;;;4.05;100.00;101656.22;5026380;28;20120;-69
2021/03/24 00:03:21;;;;;;;16.57;9.40;;;;;;;4.04;100.00;101651.84;5025099;28;20052;-69
2021/03/24 00:05:49;;;;;;;18.60;10.47;;;;;;;4.05;100.00;101664.06;5043315;28;20033;-69
2021/03/24 00:08:18;;;;;;;17.43;10.90;;;;;;;4.02;100.00;101659.63;5021381;28;20977;-69
2021/03/24 00:10:44;;;;;;;19.73;11.03;;;;;;;4.01;100.00;101667.44;5016513;28;20063;-69
2021/03/24 00:13:10;;;;;;;18.37;10.67;;;;;;;3.99;100.00;101667.41;5038227;28;20041;-69
2021/03/24 00:15:37;;;;;;;14.60;9.60;;;;;;;3.99;100.00;101661.28;5013034;28;20417;-69
2021/03/24 00:18:05;;;;;;;17.23;9.37;;;;;;;3.97;100.00;101661.25;5020425;28;20044;-70
2021/03/24 00:20:36;;;;;;;16.90;9.50;;;;;;;3.97;100.00;101660.38;5026075;28;20136;-69
2021/03/24 00:23:02;;;;;;;18.20;10.50;;;;;;;3.94;100.00;101659.44;5041031;28;20060;-69
2021/03/24 00:25:30;;;;;;;14.83;9.37;;;;;;;3.93;100.00;101662.91;5010861;28;20051;-69
2021/03/24 00:27:56;;;;;;;16.00;9.47;;;;;;;3.93;100.00;101667.25;5004580;28;20045;-69
2021/03/24 00:30:35;;;;;;;16.90;10.40;;;;;;;3.91;100.00;101672.47;5041512;28;20196;-69
2021/03/24 00:33:02;;;;;;;13.53;8.83;;;;;;;3.90;100.00;101661.97;5003668;28;20084;-69
2021/03/24 00:35:29;;;;;;;16.17;9.80;;;;;;;3.89;100.00;101666.31;5030354;28;20391;-69
2021/03/24 00:37:56;;;;;;;17.77;9.47;;;;;;;3.89;100.00;101662.81;5017364;28;20052;-69
2021/03/24 00:40:26;;;;;;;15.00;9.10;;;;;;;3.88;100.00;101659.34;5023816;28;20132;-69
2021/03/24 00:42:52;;;;;;;14.77;9.17;;;;;;;3.88;100.00;101668.91;5016894;28;20037;-69
2021/03/24 00:45:18;;;;;;;15.70;10.83;;;;;;;3.88;100.00;101664.56;5043077;28;20036;-68
2021/03/24 00:47:45;;;;;;;18.13;10.27;;;;;;;3.87;100.00;101661.91;4998360;28;20680;-69
2021/03/24 00:50:16;;;;;;;16.03;9.97;;;;;;;3.86;100.00;101649.66;5010078;28;20044;-69
2021/03/24 00:52:42;;;;;;;18.73;11.40;;;;;;;3.84;100.00;101660.09;5021333;28;20095;-69
2021/03/24 00:55:09;;;;;;;17.20;10.43;;;;;;;3.85;100.00;101655.75;5043775;28;20045;-69
2021/03/24 00:57:35;;;;;;;17.27;9.73;;;;;;;3.84;100.00;101654.88;5025485;28;20112;-69
2021/03/24 01:00:04;;;;;;;15.37;10.20;;;;;;;3.84;100.00;101653.97;5044045;28;20548;-69
2021/03/24 01:02:30;;;;;;;14.87;9.60;;;;;;;3.84;100.00;101657.47;5045401;28;20036;-69
2021/03/24 01:04:57;;;;;;;14.80;9.33;;;;;;;3.83;100.00;101657.44;5027904;28;20045;-69
2021/03/24 01:07:23;;;;;;;19.20;10.13;;;;;;;3.83;100.00;101653.09;5023213;28;20060;-69
2021/03/24 01:09:49;;;;;;;14.97;9.40;;;;;;;3.80;100.00;101647.81;5045081;28;20068;-69
2021/03/24 01:12:16;;;;;;;15.03;8.50;;;;;;;3.80;100.00;101645.19;5014581;28;20090;-69
2021/03/24 01:14:42;;;;;;;15.70;8.73;;;;;;;3.80;100.00;101647.81;5041058;28;20059;-69
2021/03/24 01:17:08;;;;;;;15.03;9.53;;;;;;;3.78;100.00;101649.50;5025832;28;20698;-69
2021/03/24 01:19:35;;;;;;;14.90;10.17;;;;;;;3.79;100.00;101653.00;5008734;28;20049;-68
2021/03/24 01:22:01;;;;;;;15.93;8.87;;;;;;;3.78;100.00;101653.84;5070265;23;20041;-68
2021/03/24 01:24:27;;;;;;;15.03;9.47;;;;;;;3.76;100.00;101645.09;5044742;28;20049;-68
2021/03/24 01:26:53;;;;;;;13.37;8.63;;;;;;;3.74;100.00;101642.44;5024318;28;20036;-69
2021/03/24 01:29:19;;;;;;;16.43;9.77;;;;;;;3.74;100.00;101646.78;4987000;28;20049;-69
2021/03/24 01:31:45;;;;;;;14.97;9.10;;;;;;;3.72;100.00;101646.75;5026330;28;20049;-68
2021/03/24 01:34:12;;;;;;;15.57;8.80;;;;;;;3.72;100.00;101645.88;4994703;28;20034;-69
2021/03/24 01:36:38;;;;;;;16.20;10.17;;;;;;;3.72;100.00;101648.50;4995352;28;20041;-68
2021/03/24 01:39:05;;;;;;;15.17;8.80;;;;;;;3.70;100.00;101642.31;5012879;28;20041;-69
2021/03/24 01:41:31;;;;;;;12.40;8.20;;;;;;;3.68;100.00;101642.28;5010254;28;20076;-69
2021/03/24 01:43:57;;;;;;;16.20;8.90;;;;;;;3.66;100.00;101644.00;4991265;28;20033;-69
2021/03/24 01:46:45;;;;;;;12.97;7.60;;;;;;;3.65;100.00;101637.00;5024863;28;20053;-68
2021/03/24 01:49:25;;;;;;;12.73;7.57;;;;;;;3.63;100.00;101638.69;5023879;28;20091;-68
2021/03/24 01:51:56;;;;;;;14.50;8.07;;;;;;;3.61;100.00;101640.38;5019921;28;20046;-69
2021/03/24 01:54:28;;;;;;;13.27;8.87;;;;;;;3.59;100.00;101636.84;5013088;28;20115;-70
2021/03/24 01:57:02;;;;;;;15.93;9.43;;;;;;;3.59;100.00;101626.41;5023001;28;20038;-69
2021/03/24 01:59:28;;;;;;;12.35;8.18;;;;;;;3.58;100.00;101635.09;5027966;28;20116;-68
2021/03/24 02:01:55;;;;;;;15.00;8.43;;;;;;;3.58;100.00;101638.59;5006599;28;20045;-69
2021/03/24 02:04:22;;;;;;;16.27;9.33;;;;;;;3.56;100.00;101645.50;5000184;28;20045;-69
2021/03/24 02:07:05;;;;;;;16.80;9.50;;;;;;;3.57;100.00;101641.16;5010988;28;20045;-69
2021/03/24 02:10:03;;;;;;;16.50;9.67;;;;;;;3.57;100.00;101643.78;5027230;28;20095;-70
2021/03/24 02:12:47;;;;;;;15.83;11.07;;;;;;;3.56;100.00;101642.91;4998703;28;20475;-69
2021/03/24 02:15:22;;;;;;;15.32;9.40;;;;;;;3.55;100.00;101645.47;4996389;28;20395;-69
2021/03/24 02:17:48;;;;;;;;;;;;;;;3.53;100.00;101639.31;5026418;28;20045;-68
2021/03/24 02:20:21;;;;;;;15.67;8.93;;;;;;;3.53;100.00;101647.16;5000946;28;19952;-68
2021/03/24 02:22:52;;;;;;;16.87;9.17;;;;;;;3.53;100.00;101640.22;5031317;28;20041;-69
2021/03/24 02:25:28;;;;;;;17.23;9.93;;;;;;;3.53;100.00;101649.75;5013936;28;20044;-68
2021/03/24 02:27:57;;;;;;;18.93;9.80;;;;;;;3.52;100.00;101645.38;5008663;28;20542;-68
2021/03/24 02:30:30;;;;;;;17.27;10.13;;;;;;;3.52;100.00;101655.84;5002147;28;20056;-69
2021/03/24 02:33:00;;;;;;;17.15;10.07;;;;;;;3.54;100.00;101651.56;5015630;28;20033;-68
2021/03/24 02:35:30;;;;;;;14.33;9.77;;;;;;;3.53;100.00;101653.28;5012210;28;20653;-68
2021/03/24 02:37:59;;;;;;;16.33;9.90;;;;;;;3.52;100.00;101650.59;5012003;28;20107;-68
2021/03/24 02:40:27;;;;;;;13.63;8.50;;;;;;;3.51;100.00;101651.47;5007751;28;20030;-69
2021/03/24 02:42:53;;;;;;;14.40;9.33;;;;;;;3.50;100.00;101644.47;5016773;28;20038;-68
2021/03/24 02:45:31;;;;;;;14.33;8.37;;;;;;;3.49;100.00;101642.72;5009269;28;20091;-69
2021/03/24 02:48:01;;;;;;;15.63;9.50;;;;;;;3.50;100.00;101647.09;5008030;28;20490;-68
2021/03/24 02:50:28;;;;;;;15.30;8.20;;;;;;;3.49;100.00;101645.31;5016904;28;20049;-68
2021/03/24 02:52:55;;;;;;;17.50;8.63;;;;;;;3.48;100.00;101635.72;5000209;28;20042;-69
2021/03/24 02:55:22;;;;;;;14.50;8.73;;;;;;;3.46;100.00;101646.13;5011861;28;20060;-68
2021/03/24 02:57:49;;;;;;;14.33;8.90;;;;;;;3.46;100.00;101645.25;4993849;28;20045;-68
2021/03/24 03:00:18;;;;;;;12.77;8.37;;;;;;;3.45;100.00;101644.38;4994711;28;20053;-69
2021/03/24 03:02:51;;;;;;;12.90;8.17;;;;;;;3.45;100.00;101640.84;5009442;28;20422;-68
2021/03/24 03:05:22;;;;;;;13.20;8.15;;;;;;;3.44;100.00;101646.94;4994288;28;20111;-68
2021/03/24 03:07:56;;;;;;;14.43;8.60;;;;;;;3.43;100.00;101640.81;4999697;28;20045;-69
2021/03/24 03:10:49;;;;;;;16.27;8.90;;;;;;;3.42;100.00;101639.06;5004867;28;20041;-68
2021/03/24 03:13:39;;;;;;;14.60;9.27;;;;;;;3.42;100.00;101643.41;4992343;28;20033;-68
2021/03/24 03:16:22;;;;;;;12.77;8.57;;;;;;;3.41;100.00;101654.69;5018282;28;20521;-68
2021/03/24 03:19:07;;;;;;;16.30;9.60;;;;;;;3.41;100.00;101642.53;4993450;28;20079;-68
2021/03/24 03:21:40;;;;;;;17.37;9.73;;;;;;;3.39;100.00;101646.84;5027893;28;20037;-68
2021/03/24 03:24:27;;;;;;;17.27;9.07;;;;;;;3.38;100.00;101648.56;5009399;28;20038;-68
2021/03/24 03:26:55;;;;;;;17.03;9.90;;;;;;;3.37;100.00;101643.31;4998031;28;20103;-70
2021/03/24 03:29:22;;;;;;;20.33;10.37;;;;;;;3.35;100.00;101640.63;5008805;28;20654;-69
2021/03/24 03:31:50;;;;;;;16.77;10.10;;;;;;;3.35;100.00;101645.84;4993867;28;20049;-68
2021/03/24 03:34:19;;;;;;;19.07;11.33;;;;;;;3.33;100.00;101637.09;5000165;28;20050;-68
2021/03/24 03:36:47;;;;;;;15.70;9.50;;;;;;;3.33;100.00;101638.84;5004134;28;20123;-68
2021/03/24 03:39:16;;;;;;;17.43;10.20;;;;;;;3.31;100.00;101638.81;5004427;28;20033;-68
2021/03/24 03:41:43;;;;;;;15.27;9.63;;;;;;;3.30;100.00;101629.22;5006407;28;20053;-69
2021/03/24 03:44:10;;;;;;;15.13;10.10;;;;;;;3.30;100.00;101628.31;5009941;28;20079;-69
2021/03/24 03:46:41;;;;;;;14.03;8.60;;;;;;;3.28;100.00;101633.53;5014877;28;20037;-70
2021/03/24 03:49:08;;;;;;;17.67;9.93;;;;;;;3.29;100.00;101627.44;5017135;28;20063;-68
2021/03/24 03:51:53;;;;;;;16.53;9.93;;;;;;;3.30;100.00;101630.94;5032786;28;20454;-68
2021/03/24 03:54:27;;;;;;;15.20;9.87;;;;;;;3.30;100.00;101630.94;5009184;28;20045;-69
2021/03/24 03:57:22;;;;;;;14.13;9.47;;;;;;;3.28;100.00;101630.00;4992885;28;20481;-68
2021/03/24 03:59:56;;;;;;;13.37;9.70;;;;;;;3.25;100.00;101625.59;5011980;28;20505;-68
2021/03/24 04:02:34;;;;;;;14.77;8.90;;;;;;;3.26;100.00;101626.47;4999684;28;20292;-68
2021/03/24 04:05:07;;;;;;;16.87;10.23;;;;;;;3.23;100.00;101623.78;5000092;28;20052;-69
2021/03/24 04:07:43;;;;;;;16.53;9.20;;;;;;;3.22;100.00;101625.53;5025013;28;20033;-69
2021/03/24 04:10:10;;;;;;;16.70;8.90;;;;;;;3.21;100.00;101628.97;5026656;28;20038;-69
2021/03/24 04:12:38;;;;;;;14.30;9.03;;;;;;;3.20;100.00;101622.00;4994545;28;20034;-68
2021/03/24 04:15:16;;;;;;;16.03;9.23;;;;;;;3.20;100.00;101626.34;4993665;28;20518;-68
2021/03/24 04:17:47;;;;;;;15.40;8.97;;;;;;;3.19;100.00;101627.16;5004203;28;20201;-68
2021/03/24 04:20:16;;;;;;;17.80;10.03;;;;;;;3.18;100.00;101618.44;4990954;28;20049;-68
2021/03/24 04:22:44;;;;;;;21.93;12.80;;;;;;;3.19;100.00;101620.19;5010757;28;20030;-68
2021/03/24 04:25:15;;;;;;;18.37;10.30;;;;;;;3.18;100.00;101618.44;4999916;28;20096;-69
2021/03/24 04:27:43;;;;;;;17.70;10.70;;;;;;;3.19;100.00;101619.31;4997458;28;20041;-69
2021/03/24 04:30:14;;;;;;;22.10;12.53;;;;;;;3.19;100.00;101624.53;5014365;28;20092;-71
2021/03/24 04:32:40;;;;;;;20.83;11.57;;;;;;;3.21;100.00;101617.66;5004074;28;20591;-73
2021/03/24 04:35:08;;;;;;;19.17;11.53;;;;;;;3.20;100.00;101619.38;5001552;28;20045;-73
2021/03/24 04:37:37;;;;;;;19.67;11.47;;;;;;;3.20;100.00;101626.34;5021884;28;20068;-71
2021/03/24 04:40:15;;;;;;;22.70;10.80;;;;;;;3.20;100.00;101622.00;4994845;28;20041;-73
2021/03/24 04:42:47;;;;;;;19.60;11.37;;;;;;;3.18;100.00;101621.06;5025222;28;20084;-72
2021/03/24 04:45:22;;;;;;;17.90;11.20;;;;;;;3.19;100.00;101625.44;5012457;28;20080;-71
2021/03/24 04:47:52;;;;;;;15.10;9.83;;;;;;;3.18;100.00;101613.22;5006249;28;20068;-71
2021/03/24 04:51:02;;;;;;;17.83;10.60;;;;;;;3.20;100.00;101618.50;5009668;28;20478;-73
2021/03/24 04:53:32;;;;;;;19.03;9.90;;;;;;;3.20;100.00;101623.72;4924158;29;20072;-70
2021/03/24 04:55:59;;;;;;;23.67;13.17;;;;;;;3.21;100.00;101620.28;4944836;29;20046;-73
2021/03/24 04:58:30;;;;;;;22.80;13.50;;;;;;;3.24;100.00;101620.34;4978872;28;20049;-73
2021/03/24 05:01:12;;;;;;;19.60;11.73;;;;;;;3.25;100.00;101619.47;5006696;28;20069;-71
2021/03/24 05:03:41;;;;;;;21.57;12.27;;;;;;;3.26;100.00;101616.03;4999124;28;20088;-73
2021/03/24 05:06:30;;;;;;;18.17;10.40;;;;;;;3.24;100.00;101621.22;4990840;28;20045;-73
2021/03/24 05:08:57;;;;;;;18.93;11.07;;;;;;;3.26;100.00;101626.47;5030151;28;20095;-72
2021/03/24 05:11:24;;;;;;;22.47;12.27;;;;;;;3.27;100.00;101629.13;5025296;28;20438;-70
2021/03/24 05:13:57;;;;;;;23.50;11.80;;;;;;;3.28;100.00;101627.38;5029263;28;20082;-73
2021/03/24 05:16:34;;;;;;;23.80;13.20;;;;;;;3.28;100.00;101630.00;5006488;28;20048;-71
2021/03/24 05:19:02;;;;;;;16.60;10.23;;;;;;;3.29;100.00;101623.94;5009619;28;20057;-73
2021/03/24 05:21:46;;;;;;;18.60;12.37;;;;;;;3.31;100.00;101625.75;4987722;28;20038;-72
2021/03/24 05:24:25;;;;;;;33.67;18.67;;;;;;;3.34;100.00;101622.31;5010525;28;20115;-72
2021/03/24 05:26:58;;;;;;;22.90;13.30;;;;;;;3.36;100.00;101618.91;5012973;28;20068;-71
2021/03/24 05:29:28;;;;;;;26.00;14.23;;;;;;;3.39;100.00;101625.94;5013965;28;20050;-72
2021/03/24 05:31:55;;;;;;;27.23;14.33;;;;;;;3.42;100.00;101622.50;5002824;28;20053;-73
2021/03/24 05:34:26;;;;;;;22.97;13.03;;;;;;;3.43;100.00;101621.66;5017912;28;20122;-72
2021/03/24 05:36:52;;;;;;;26.33;13.97;;;;;;;3.46;100.00;101625.25;5017578;28;20038;-73
2021/03/24 05:39:32;;;;;;;25.00;14.10;;;;;;;3.48;100.00;101623.53;5009142;28;20049;-72
2021/03/24 05:42:20;;;;;;;23.00;12.63;;;;;;;3.51;100.00;101614.88;5020769;28;20041;-72
2021/03/24 05:45:04;;;;;;;21.67;11.60;;;;;;;3.52;100.00;101622.75;5016458;28;20094;-73
2021/03/24 05:47:36;;;;;;;;;;;;;;;3.55;100.00;101620.22;5009071;28;20533;-73
2021/03/24 05:50:26;;;;;;;20.30;12.63;;;;;;;3.58;100.00;101625.50;5029701;28;19928;-73
2021/03/24 05:53:07;;;;;;;19.90;12.17;;;;;;;3.61;100.00;101624.69;5008835;28;20045;-71
2021/03/24 05:55:42;;;;;;;24.47;13.47;;;;;;;3.65;100.00;101626.53;5018683;28;20045;-72
2021/03/24 05:58:17;;;;;;;20.87;11.87;;;;;;;3.67;100.00;101623.13;5017706;28;20057;-72
2021/03/24 06:01:14;;;;;;;21.90;12.77;;;;;;;3.72;100.00;101617.13;5016902;28;20045;-73
2021/03/24 06:03:47;;;;;;;24.87;12.60;;;;;;;3.77;100.00;101621.59;5025415;28;20029;-73
2021/03/24 06:06:26;;;;;;;25.33;14.87;;;;;;;3.82;100.00;101625.19;5003465;28;20091;-71
2021/03/24 06:09:01;;;;;;;22.83;13.50;;;;;;;3.86;100.00;101627.03;5007156;28;20056;-72
2021/03/24 06:11:45;;;;;;;23.90;13.67;;;;;;;3.92;100.00;101634.13;5004905;28;20473;-71
2021/03/24 06:14:30;;;;;;;24.73;13.48;;;;;;;3.96;100.00;101635.97;5000919;28;20065;-71
2021/03/24 06:17:02;;;;;;;25.98;15.25;;;;;;;3.97;100.00;101634.25;5020872;28;20042;-71
2021/03/24 06:19:37;;;;;;;23.53;13.70;;;;;;;4.00;100.00;101629.06;5009692;28;20068;-72
2021/03/24 06:22:42;;;;;;;24.23;14.03;;;;;;;4.05;100.00;101633.56;4990706;28;20107;-71
2021/03/24 06:25:33;;;;;;;24.58;13.63;;;;;;;4.09;100.00;101635.38;5015439;28;20091;-72
2021/03/24 06:28:04;;;;;;;20.93;13.20;;;;;;;4.15;100.00;101637.25;5006938;28;20782;-73
2021/03/24 06:30:36;;;;;;;22.67;12.80;;;;;;;4.20;100.00;101644.34;5002516;28;20510;-73
2021/03/24 06:33:40;;;;;;;20.17;12.63;;;;;;;4.26;100.00;101648.81;4995247;28;20046;-73
2021/03/24 06:36:34;;;;;;;24.10;13.70;;;;;;;4.34;100.00;101641.13;5025992;28;20705;-72
2021/03/24 06:39:29;;;;;;;29.30;15.97;;;;;;;4.38;100.00;101637.75;5001319;28;20061;-72
2021/03/24 06:42:03;;;;;;;24.13;14.10;;;;;;;4.46;100.00;101646.63;5012157;28;20045;-71
2021/03/24 06:44:29;;;;;;;28.02;14.27;;;;;;;4.53;100.00;101644.13;5011741;28;20041;-73
2021/03/24 06:47:02;;;;;;;26.30;15.73;;;;;;;4.58;100.00;101646.84;5008314;28;20038;-73
2021/03/24 06:49:43;;;;;;;23.87;13.67;;;;;;;4.61;100.00;101646.03;4995119;28;20054;-71
2021/03/24 06:52:37;;;;;;;25.80;14.80;;;;;;;4.66;100.00;101647.00;5001060;28;20049;-71
2021/03/24 06:55:47;;;;;;;24.95;15.05;;;;;;;4.73;99.88;101643.66;5020397;28;20119;-73
2021/03/24 06:58:31;;;;;;;26.40;15.00;;;;;;;4.80;99.77;101640.31;5020395;28;20679;-72
2021/03/24 07:01:20;;;;;;;26.67;14.88;;;;;;;4.82;98.71;101646.44;5029072;28;20038;-71
2021/03/24 07:03:52;;;;;;;30.67;15.47;;;;;;;4.97;97.59;101653.72;4998496;28;20057;-71
2021/03/24 07:06:52;;;;;;;30.10;15.90;;;;;;;5.04;96.77;101650.31;5027506;28;20568;-73
2021/03/24 07:09:21;;;;;;;28.93;14.83;;;;;;;5.07;96.28;101650.41;4991653;28;20573;-73
2021/03/24 07:12:17;;;;;;;26.40;14.87;;;;;;;5.14;96.10;101652.28;5017544;28;20029;-73
2021/03/24 07:14:57;;;;;;;28.03;16.17;;;;;;;5.20;94.48;101654.09;5027659;28;20045;-72
2021/03/24 07:17:42;;;;;;;27.83;16.17;;;;;;;5.25;94.05;101660.31;5007707;28;20108;-72
2021/03/24 07:20:33;;;;;;;25.00;15.67;;;;;;;5.35;93.67;101655.25;4990664;28;20046;-71
2021/03/24 07:23:06;;;;;;;26.33;15.53;;;;;;;5.40;92.48;101652.72;4991909;28;20133;-73
2021/03/24 07:25:55;;;;;;;25.53;15.57;;;;;;;5.39;91.90;101655.31;5008539;28;20045;-72
2021/03/24 07:28:40;;;;;;;26.03;15.77;;;;;;;5.49;91.73;101659.84;4982491;28;20046;-72
2021/03/24 07:31:18;;;;;;;;;;;;;;;5.60;89.87;101663.50;5023747;28;20125;-73
2021/03/24 07:33:50;;;;;;;23.80;14.47;;;;;;;5.61;90.14;101668.78;5026663;28;19940;-73
2021/03/24 07:36:32;;;;;;;26.23;16.50;;;;;;;5.65;90.78;101662.72;5027875;28;20038;-72
2021/03/24 07:39:11;;;;;;;29.07;16.57;;;;;;;5.67;89.07;101665.38;5000410;28;20041;-72
2021/03/24 07:42:02;;;;;;;33.77;18.30;;;;;;;5.81;89.44;101665.59;5004343;28;20106;-72
2021/03/24 07:44:49;;;;;;;30.70;15.53;;;;;;;5.83;88.83;101667.38;5009743;28;20280;-71
2021/03/24 07:47:30;;;;;;;36.37;18.17;;;;;;;5.91;88.88;101665.78;5027727;28;20099;-72
2021/03/24 07:50:21;;;;;;;27.77;17.20;;;;;;;6.07;88.79;101666.88;5011181;28;20046;-72
2021/03/24 07:53:04;;;;;;;29.47;16.20;;;;;;;6.10;86.97;101671.28;5007642;28;20041;-71
2021/03/24 07:55:42;;;;;;;25.37;16.23;;;;;;;6.10;85.94;101666.91;5015689;28;20053;-72
2021/03/24 07:58:39;;;;;;;30.67;17.27;;;;;;;6.19;86.29;101676.66;5023688;28;20033;-72
2021/03/24 08:01:16;;;;;;;30.83;17.30;;;;;;;6.27;85.40;101677.63;5025417;28;20107;-71
2021/03/24 08:03:54;;;;;;;36.57;19.73;;;;;;;6.44;84.60;101665.63;4989500;28;20111;-72
2021/03/24 08:06:28;;;;;;;27.23;16.63;;;;;;;6.51;83.51;101668.31;5016494;28;20103;-72
2021/03/24 08:09:15;;;;;;;24.45;16.02;;;;;;;6.72;83.23;101669.44;5027547;28;20049;-71
2021/03/24 08:12:00;;;;;;;36.60;18.97;;;;;;;6.75;82.63;101676.50;5011188;28;20041;-71
2021/03/24 08:14:32;;;;;;;33.60;19.23;;;;;;;6.75;81.82;101682.63;4992838;28;20041;-72
2021/03/24 08:17:18;;;;;;;27.40;16.60;;;;;;;6.85;82.00;101673.09;5009818;28;20482;-72
2021/03/24 08:20:10;;;;;;;31.40;18.40;;;;;;;6.86;81.60;101680.13;5018520;28;20049;-71
2021/03/24 08:22:39;;;;;;;33.30;19.97;;;;;;;6.76;81.30;101688.75;4987523;28;20038;-72
2021/03/24 08:25:18;;;;;;;30.00;17.90;;;;;;;7.00;81.09;101682.91;5008925;28;20074;-71
2021/03/24 08:28:08;;;;;;;26.97;16.13;;;;;;;7.18;80.79;101676.94;4973757;28;20473;-72
2021/03/24 08:30:57;;;;;;;29.17;17.70;;;;;;;7.34;80.05;101679.72;5007489;28;20045;-71
2021/03/24 08:33:52;;;;;;;26.93;16.93;;;;;;;7.41;79.19;101677.16;5005567;28;20438;-71
2021/03/24 08:36:44;;;;;;;29.00;16.60;;;;;;;7.43;78.71;101668.41;4989567;28;20050;-71
2021/03/24 08:39:29;;;;;;;29.57;18.93;;;;;;;7.34;78.04;101678.84;4985718;28;20030;-71
2021/03/24 08:42:44;;;;;;;28.80;17.47;;;;;;;7.41;77.34;101675.41;5025893;28;20515;-72
2021/03/24 08:45:43;;;;;;;29.50;17.13;;;;;;;7.44;78.66;101674.56;4926852;29;20036;-72
2021/03/24 08:48:13;;;;;;;33.10;18.37;;;;;;;7.58;77.90;101673.81;4926453;29;20047;-72
2021/03/24 08:50:44;;;;;;;28.57;17.67;;;;;;;7.74;77.32;101680.06;4992577;28;20061;-71
2021/03/24 08:53:13;;;;;;;30.27;17.37;;;;;;;7.93;77.17;101677.56;5009124;28;20078;-72
2021/03/24 08:55:47;;;;;;;27.53;18.20;;;;;;;7.99;76.02;101674.94;5024483;28;20434;-71
2021/03/24 08:58:19;;;;;;;30.53;19.73;;;;;;;8.03;75.49;101680.25;5024625;28;20379;-71
2021/03/24 09:00:53;;;;;;;31.70;19.00;;;;;;;8.13;75.45;101681.19;5007466;28;20042;-72
2021/03/24 09:03:41;;;;;;;34.83;23.20;;;;;;;8.19;74.96;101683.88;5008916;28;20072;-71
2021/03/24 09:06:29;;;;;;;32.78;18.98;;;;;;;8.20;73.89;101680.34;5007102;28;20284;-72
2021/03/24 09:09:13;;;;;;;30.85;19.73;;;;;;;8.22;73.97;101677.72;5008785;28;20042;-71
2021/03/24 09:11:41;;;;;;;32.55;20.10;;;;;;;8.36;74.42;101689.25;5005067;28;20050;-71
2021/03/24 09:14:27;;;;;;;30.98;19.63;;;;;;;8.35;73.16;101671.69;4989924;28;20570;-71
2021/03/24 09:17:12;;;;;;;37.97;20.15;;;;;;;8.20;72.38;101680.34;5005033;28;20037;-71
2021/03/24 09:20:00;;;;;;;35.33;21.27;;;;;;;8.21;72.00;101681.22;5006739;28;20449;-71
2021/03/24 09:22:48;;;;;;;33.93;19.27;;;;;;;8.32;72.22;101679.53;5021030;28;20127;-71
2021/03/24 09:25:20;;;;;;;34.90;19.65;;;;;;;8.48;72.12;101678.75;5004643;28;20042;-71
2021/03/24 09:28:14;;;;;;;34.35;20.98;;;;;;;8.56;71.54;101677.03;5021948;28;20037;-70
2021/03/24 09:31:07;;;;;;;30.25;18.73;;;;;;;8.80;72.19;101667.47;5026745;28;20454;-71
2021/03/24 09:33:52;;;;;;;37.55;21.33;;;;;;;9.05;72.28;101676.31;5007968;28;20042;-71
2021/03/24 09:36:56;;;;;;;36.97;20.83;;;;;;;9.29;70.23;101663.16;4973246;28;20049;-72
2021/03/24 09:39:41;;;;;;;43.55;24.25;;;;;;;8.95;67.55;101672.78;4998834;28;20046;-70
2021/03/24 09:42:19;;;;;;;37.63;22.25;;;;;;;9.04;69.33;101657.00;5023872;28;20498;-71
2021/03/24 09:44:51;;;;;;;38.83;22.48;;;;;;;9.28;70.35;101657.03;5008112;28;20112;-71
2021/03/24 09:47:32;;;;;;;40.20;24.02;;;;;;;9.41;68.16;101655.25;5025113;28;20042;-71
2021/03/24 09:50:12;;;;;;;39.60;22.73;;;;;;;9.62;67.96;101658.78;5007233;28;20676;-72
2021/03/24 09:52:41;;;;;;;41.72;24.02;;;;;;;9.65;64.90;101651.72;5008113;28;20099;-71
2021/03/24 09:55:17;;;;;;;41.05;25.95;;;;;;;9.67;64.41;101654.38;5007453;28;20042;-71
2021/03/24 09:58:02;;;;;;;43.90;24.60;;;;;;;9.60;63.04;101648.25;5008129;28;20051;-71
2021/03/24 10:00:35;;;;;;;48.92;26.92;;;;;;;9.09;62.78;101644.72;5024541;28;20049;-71
2021/03/24 10:03:28;;;;;;;44.95;26.48;;;;;;;9.24;66.31;101631.50;5006894;28;20046;-72
2021/03/24 10:06:00;;;;;;;41.33;25.02;;;;;;;9.35;64.65;101630.66;4998790;28;20628;-72
2021/03/24 10:08:35;;;;;;;40.15;24.42;;;;;;;9.26;63.47;101637.69;5002367;28;20601;-71
2021/03/24 10:11:16;;;;;;;43.97;26.00;;;;;;;8.94;63.78;101620.97;5011797;28;20128;-71
2021/03/24 10:13:48;;;;;;;46.42;27.17;;;;;;;8.88;64.13;101623.56;5006058;28;21045;-71
2021/03/24 10:16:30;;;;;;;45.92;25.60;;;;;;;8.88;65.63;101628.84;4975977;28;20049;-71
2021/03/24 10:19:05;;;;;;;41.22;24.55;;;;;;;8.98;65.77;101620.06;5008817;28;20648;-70
2021/03/24 10:21:40;;;;;;;39.40;24.20;;;;;;;9.23;64.92;101619.22;5010476;28;20060;-71
2021/03/24 10:24:18;;;;;;;40.35;23.90;;;;;;;9.35;65.27;101626.25;4989606;28;20037;-71
2021/03/24 10:26:53;;;;;;;44.53;25.67;;;;;;;9.59;66.02;101626.25;5007292;28;20139;-71
2021/03/24 10:29:27;;;;;;;43.65;24.65;;;;;;;9.71;64.02;101620.06;5002093;28;20080;-71
2021/03/24 10:32:05;;;;;;;45.05;25.17;;;;;;;9.62;63.03;101612.16;4972773;28;20061;-71
2021/03/24 10:34:43;;;;;;;40.78;25.40;;;;;;;9.44;63.72;101625.38;4994119;28;20064;-71
2021/03/24 10:37:18;;;;;;;49.75;29.52;;;;;;;9.12;63.45;101618.34;5012203;28;20073;-71
2021/03/24 10:39:53;;;;;;;48.97;26.70;;;;;;;8.96;64.72;101627.09;5009484;28;20040;-71
2021/03/24 10:42:36;;;;;;;47.33;29.15;;;;;;;8.87;65.94;101633.22;5004510;28;20131;-71
2021/03/24 10:45:18;;;;;;;47.17;28.75;;;;;;;8.92;65.79;101628.88;5018208;28;20802;-71
2021/03/24 10:47:49;;;;;;;55.20;29.42;;;;;;;8.84;65.52;101627.97;4991741;28;20076;-71
2021/03/24 10:50:30;;;;;;;50.05;29.95;;;;;;;8.79;67.27;101626.19;4975027;28;20052;-71
2021/03/24 10:53:01;;;;;;;47.17;27.40;;;;;;;9.08;66.66;101621.88;5016464;28;20029;-71
2021/03/24 10:55:29;;;;;;;48.17;27.10;;;;;;;9.03;66.48;101619.22;5007313;28;20045;-73
2021/03/24 10:58:33;;;;;;;45.75;25.55;;;;;;;9.07;65.81;101614.81;4983538;28;20502;-71
2021/03/24 11:01:13;;;;;;;44.25;26.40;;;;;;;9.02;65.62;101617.44;4994356;28;20087;-72
2021/03/24 11:03:48;;;;;;;44.15;25.60;;;;;;;9.05;65.13;101611.28;4993165;28;20506;-71
2021/03/24 11:06:32;;;;;;;44.58;26.60;;;;;;;9.27;64.78;101615.72;5024411;28;20065;-71
2021/03/24 11:09:20;;;;;;;40.70;24.80;;;;;;;9.15;62.73;101612.19;5006108;28;20041;-71
2021/03/24 11:11:49;;;;;;;42.05;24.50;;;;;;;8.87;63.05;101619.19;5002878;28;20073;-71
2021/03/24 11:14:19;;;;;;;42.30;23.85;;;;;;;8.72;63.82;101612.13;4980317;28;20034;-71
2021/03/24 11:16:49;;;;;;;37.70;21.77;;;;;;;8.91;64.26;101602.47;5010705;28;20041;-70
2021/03/24 11:19:25;;;;;;;41.20;23.95;;;;;;;9.03;64.68;101597.25;4993755;28;20418;-71
2021/03/24 11:22:12;;;;;;;39.15;23.88;;;;;;;9.17;65.69;101606.06;4992569;28;20498;-72
2021/03/24 11:24:50;;;;;;;38.05;23.45;;;;;;;9.25;63.85;101599.03;4974653;28;20042;-69
2021/03/24 11:27:20;;;;;;;46.63;26.23;;;;;;;9.26;65.40;101605.16;5010261;28;20037;-69
2021/03/24 11:29:52;;;;;;;35.85;23.30;;;;;;;9.57;62.78;101606.88;5003076;28;20042;-69
2021/03/24 11:32:49;;;;;;;42.30;24.08;;;;;;;9.25;62.28;101599.03;5015199;28;20075;-70
2021/03/24 11:35:33;;;;;;;48.83;26.05;;;;;;;8.91;63.54;101603.41;5006799;28;20152;-69
2021/03/24 11:38:21;;;;;;;39.22;23.90;;;;;;;9.24;65.65;101609.53;5007280;28;20065;-69
2021/03/24 11:40:54;;;;;;;44.47;26.52;;;;;;;9.26;63.87;101605.16;5011343;28;20460;-69
2021/03/24 11:43:31;;;;;;;42.95;24.45;;;;;;;9.32;63.25;101605.16;5013518;28;20465;-69
2021/03/24 11:46:32;;;;;;;42.38;24.95;;;;;;;9.44;63.11;101602.53;5025335;28;20041;-69
2021/03/24 11:49:20;;;;;;;42.35;25.17;;;;;;;9.03;64.37;101600.75;4988136;28;20072;-69
2021/03/24 11:52:10;;;;;;;45.65;26.10;;;;;;;9.28;64.23;101604.28;5014663;28;20107;-69
2021/03/24 11:54:49;;;;;;;46.30;26.73;;;;;;;9.13;65.04;101600.75;5003809;28;20133;-69
2021/03/24 11:57:39;;;;;;;47.72;25.98;;;;;;;9.16;64.84;101593.72;5015930;28;20082;-68
2021/03/24 12:00:20;;;;;;;48.47;29.45;;;;;;;9.05;64.65;101590.22;5018312;28;20037;-69